sensor_id;sensor_type;location;lat;lon;timestamp;P1;durP1;ratioP1;P2;durP2;ratioP2
45784;SDS011;31489;51.404;5.474;2022-10-26T00:01:29;10.02;;;3.67;;
45784;SDS011;31489;51.404;5.474;2022-10-26T00:03:55;9.43;;;3.63;;
45784;SDS011;31489;51.404;5.474;2022-10-26T00:06:22;8.82;;;3.67;;
45784;SDS011;31489;51.404;5.474;2022-10-26T00:08:49;6.43;;;3.42;;
45784;SDS011;31489;51.404;5.474;2022-10-26T00:11:16;9.63;;;3.53;;
45784;SDS011;31489;51.404;5.474;2022-10-26T00:13:43;5.28;;;3.10;;
45784;SDS011;31489;51.404;5.474;2022-10-26T00:16:11;6.25;;;3.38;;
45784;SDS011;31489;51.404;5.474;2022-10-26T00:18:48;8.02;;;3.30;;
45784;SDS011;31489;51.404;5.474;2022-10-26T00:21:14;9.15;;;3.13;;
45784;SDS011;31489;51.404;5.474;2022-10-26T00:23:40;7.65;;;3.47;;
45784;SDS011;31489;51.404;5.474;2022-10-26T00:26:06;7.68;;;3.60;;
45784;SDS011;31489;51.404;5.474;2022-10-26T00:28:32;6.65;;;3.38;;
45784;SDS011;31489;51.404;5.474;2022-10-26T00:31:01;8.85;;;3.50;;
45784;SDS011;31489;51.404;5.474;2022-10-26T00:33:29;7.80;;;3.47;;
45784;SDS011;31489;51.404;5.474;2022-10-26T00:35:55;8.20;;;3.22;;
45784;SDS011;31489;51.404;5.474;2022-10-26T00:38:21;7.72;;;3.60;;
45784;SDS011;31489;51.404;5.474;2022-10-26T00:40:46;6.93;;;3.50;;
45784;SDS011;31489;51.404;5.474;2022-10-26T00:43:55;7.00;;;3.33;;
45784;SDS011;31489;51.404;5.474;2022-10-26T00:46:03;5.32;;;3.45;;
45784;SDS011;31489;51.404;5.474;2022-10-26T00:48:33;11.57;;;3.83;;
45784;SDS011;31489;51.404;5.474;2022-10-26T00:51:03;4.70;;;3.67;;
45784;SDS011;31489;51.404;5.474;2022-10-26T00:53:32;5.72;;;3.35;;
45784;SDS011;31489;51.404;5.474;2022-10-26T00:55:59;4.88;;;3.63;;
45784;SDS011;31489;51.404;5.474;2022-10-26T00:58:26;6.07;;;3.38;;
45784;SDS011;31489;51.404;5.474;2022-10-26T01:00:52;8.52;;;3.92;;
45784;SDS011;31489;51.404;5.474;2022-10-26T01:03:18;5.65;;;3.17;;
45784;SDS011;31489;51.404;5.474;2022-10-26T01:05:45;5.80;;;3.45;;
45784;SDS011;31489;51.404;5.474;2022-10-26T01:08:12;4.63;;;3.20;;
45784;SDS011;31489;51.404;5.474;2022-10-26T01:10:40;5.85;;;3.92;;
45784;SDS011;31489;51.404;5.474;2022-10-26T01:13:07;7.88;;;3.95;;
45784;SDS011;31489;51.404;5.474;2022-10-26T01:15:38;7.72;;;3.78;;
45784;SDS011;31489;51.404;5.474;2022-10-26T01:23:54;7.65;;;3.95;;
45784;SDS011;31489;51.404;5.474;2022-10-26T01:35:26;10.20;;;4.10;;
45784;SDS011;31489;51.404;5.474;2022-10-26T01:38:08;5.93;;;4.15;;
45784;SDS011;31489;51.404;5.474;2022-10-26T01:40:45;7.65;;;4.15;;
45784;SDS011;31489;51.404;5.474;2022-10-26T01:43:18;16.98;;;4.00;;
45784;SDS011;31489;51.404;5.474;2022-10-26T01:45:46;8.65;;;4.03;;
45784;SDS011;31489;51.404;5.474;2022-10-26T01:48:15;7.68;;;3.67;;
45784;SDS011;31489;51.404;5.474;2022-10-26T01:50:45;6.85;;;4.25;;
45784;SDS011;31489;51.404;5.474;2022-10-26T01:53:13;9.63;;;4.60;;
45784;SDS011;31489;51.404;5.474;2022-10-26T01:55:50;6.53;;;4.10;;
45784;SDS011;31489;51.404;5.474;2022-10-26T01:58:22;6.88;;;3.97;;
45784;SDS011;31489;51.404;5.474;2022-10-26T02:00:58;10.35;;;4.35;;
45784;SDS011;31489;51.404;5.474;2022-10-26T02:03:39;8.00;;;4.00;;
45784;SDS011;31489;51.404;5.474;2022-10-26T02:06:14;5.55;;;4.28;;
45784;SDS011;31489;51.404;5.474;2022-10-26T02:11:30;8.60;;;4.03;;
45784;SDS011;31489;51.404;5.474;2022-10-26T02:19:41;7.80;;;4.28;;
45784;SDS011;31489;51.404;5.474;2022-10-26T02:22:35;8.48;;;3.83;;
45784;SDS011;31489;51.404;5.474;2022-10-26T02:25:22;10.77;;;4.35;;
45784;SDS011;31489;51.404;5.474;2022-10-26T02:27:57;7.65;;;4.32;;
45784;SDS011;31489;51.404;5.474;2022-10-26T02:30:29;8.82;;;4.30;;
45784;SDS011;31489;51.404;5.474;2022-10-26T02:32:57;11.27;;;4.07;;
45784;SDS011;31489;51.404;5.474;2022-10-26T02:35:24;7.03;;;3.63;;
45784;SDS011;31489;51.404;5.474;2022-10-26T02:37:57;10.77;;;3.80;;
45784;SDS011;31489;51.404;5.474;2022-10-26T02:40:26;5.78;;;4.10;;
45784;SDS011;31489;51.404;5.474;2022-10-26T02:42:53;5.68;;;3.47;;
45784;SDS011;31489;51.404;5.474;2022-10-26T02:45:22;5.00;;;2.97;;
45784;SDS011;31489;51.404;5.474;2022-10-26T02:47:51;6.10;;;3.50;;
45784;SDS011;31489;51.404;5.474;2022-10-26T02:50:18;6.13;;;3.13;;
45784;SDS011;31489;51.404;5.474;2022-10-26T02:52:50;5.80;;;2.88;;
45784;SDS011;31489;51.404;5.474;2022-10-26T02:55:33;8.27;;;3.63;;
45784;SDS011;31489;51.404;5.474;2022-10-26T02:58:10;8.20;;;2.90;;
45784;SDS011;31489;51.404;5.474;2022-10-26T03:00:38;11.23;;;3.28;;
45784;SDS011;31489;51.404;5.474;2022-10-26T03:03:04;7.18;;;3.03;;
45784;SDS011;31489;51.404;5.474;2022-10-26T03:05:30;5.75;;;2.95;;
45784;SDS011;31489;51.404;5.474;2022-10-26T03:07:57;6.28;;;2.65;;
45784;SDS011;31489;51.404;5.474;2022-10-26T03:10:23;12.23;;;3.35;;
45784;SDS011;31489;51.404;5.474;2022-10-26T03:12:49;9.93;;;3.30;;
45784;SDS011;31489;51.404;5.474;2022-10-26T03:15:15;6.00;;;2.83;;
45784;SDS011;31489;51.404;5.474;2022-10-26T03:17:41;5.88;;;2.80;;
45784;SDS011;31489;51.404;5.474;2022-10-26T03:20:08;4.80;;;2.28;;
45784;SDS011;31489;51.404;5.474;2022-10-26T03:22:34;4.20;;;2.67;;
45784;SDS011;31489;51.404;5.474;2022-10-26T03:24:59;7.22;;;2.63;;
45784;SDS011;31489;51.404;5.474;2022-10-26T03:27:25;6.38;;;2.90;;
45784;SDS011;31489;51.404;5.474;2022-10-26T03:29:51;5.18;;;2.60;;
45784;SDS011;31489;51.404;5.474;2022-10-26T03:32:17;6.72;;;2.47;;
45784;SDS011;31489;51.404;5.474;2022-10-26T03:34:42;4.25;;;2.80;;
45784;SDS011;31489;51.404;5.474;2022-10-26T03:37:08;5.43;;;2.60;;
45784;SDS011;31489;51.404;5.474;2022-10-26T03:39:33;5.72;;;2.45;;
45784;SDS011;31489;51.404;5.474;2022-10-26T03:41:59;4.63;;;2.22;;
45784;SDS011;31489;51.404;5.474;2022-10-26T03:44:24;4.00;;;2.22;;
45784;SDS011;31489;51.404;5.474;2022-10-26T03:46:50;4.30;;;2.47;;
45784;SDS011;31489;51.404;5.474;2022-10-26T03:49:16;7.75;;;2.58;;
45784;SDS011;31489;51.404;5.474;2022-10-26T03:51:41;6.72;;;2.53;;
45784;SDS011;31489;51.404;5.474;2022-10-26T03:54:07;6.25;;;1.98;;
45784;SDS011;31489;51.404;5.474;2022-10-26T03:56:32;2.85;;;2.20;;
45784;SDS011;31489;51.404;5.474;2022-10-26T03:58:58;7.45;;;2.60;;
45784;SDS011;31489;51.404;5.474;2022-10-26T04:01:23;5.88;;;2.70;;
45784;SDS011;31489;51.404;5.474;2022-10-26T04:03:49;6.05;;;2.63;;
45784;SDS011;31489;51.404;5.474;2022-10-26T04:06:15;5.45;;;2.30;;
45784;SDS011;31489;51.404;5.474;2022-10-26T04:08:40;8.02;;;2.80;;
45784;SDS011;31489;51.404;5.474;2022-10-26T04:11:06;7.72;;;2.47;;
45784;SDS011;31489;51.404;5.474;2022-10-26T04:13:31;6.47;;;2.45;;
45784;SDS011;31489;51.404;5.474;2022-10-26T04:15:57;4.43;;;2.50;;
45784;SDS011;31489;51.404;5.474;2022-10-26T04:18:23;4.20;;;2.28;;
45784;SDS011;31489;51.404;5.474;2022-10-26T04:20:48;5.93;;;2.40;;
45784;SDS011;31489;51.404;5.474;2022-10-26T04:23:15;7.30;;;2.40;;
45784;SDS011;31489;51.404;5.474;2022-10-26T04:25:42;6.50;;;2.42;;
45784;SDS011;31489;51.404;5.474;2022-10-26T04:28:10;8.25;;;2.15;;
45784;SDS011;31489;51.404;5.474;2022-10-26T04:30:36;4.55;;;2.08;;
45784;SDS011;31489;51.404;5.474;2022-10-26T04:33:03;7.28;;;2.15;;
45784;SDS011;31489;51.404;5.474;2022-10-26T04:35:28;5.20;;;2.40;;
45784;SDS011;31489;51.404;5.474;2022-10-26T04:37:58;4.10;;;2.20;;
45784;SDS011;31489;51.404;5.474;2022-10-26T04:40:24;9.00;;;2.22;;
45784;SDS011;31489;51.404;5.474;2022-10-26T04:42:51;4.93;;;2.20;;
45784;SDS011;31489;51.404;5.474;2022-10-26T04:45:17;4.97;;;2.25;;
45784;SDS011;31489;51.404;5.474;2022-10-26T04:47:42;7.32;;;2.50;;
45784;SDS011;31489;51.404;5.474;2022-10-26T04:50:09;8.48;;;2.17;;
45784;SDS011;31489;51.404;5.474;2022-10-26T04:52:35;6.88;;;2.30;;
45784;SDS011;31489;51.404;5.474;2022-10-26T04:55:02;8.18;;;1.90;;
45784;SDS011;31489;51.404;5.474;2022-10-26T04:57:30;7.43;;;2.30;;
45784;SDS011;31489;51.404;5.474;2022-10-26T04:59:56;5.47;;;2.10;;
45784;SDS011;31489;51.404;5.474;2022-10-26T05:02:22;5.43;;;2.25;;
45784;SDS011;31489;51.404;5.474;2022-10-26T05:04:47;6.35;;;2.25;;
45784;SDS011;31489;51.404;5.474;2022-10-26T05:07:13;6.90;;;2.40;;
45784;SDS011;31489;51.404;5.474;2022-10-26T05:09:38;6.97;;;2.63;;
45784;SDS011;31489;51.404;5.474;2022-10-26T05:12:04;6.60;;;2.20;;
45784;SDS011;31489;51.404;5.474;2022-10-26T05:14:29;5.70;;;2.10;;
45784;SDS011;31489;51.404;5.474;2022-10-26T05:16:55;8.75;;;2.42;;
45784;SDS011;31489;51.404;5.474;2022-10-26T05:19:21;4.20;;;2.22;;
45784;SDS011;31489;51.404;5.474;2022-10-26T05:21:47;5.38;;;2.15;;
45784;SDS011;31489;51.404;5.474;2022-10-26T05:24:13;9.50;;;2.35;;
45784;SDS011;31489;51.404;5.474;2022-10-26T05:26:38;4.65;;;2.10;;
45784;SDS011;31489;51.404;5.474;2022-10-26T05:29:04;5.90;;;1.85;;
45784;SDS011;31489;51.404;5.474;2022-10-26T05:31:29;10.10;;;2.40;;
45784;SDS011;31489;51.404;5.474;2022-10-26T05:33:55;3.78;;;1.70;;
45784;SDS011;31489;51.404;5.474;2022-10-26T05:36:20;4.40;;;2.10;;
45784;SDS011;31489;51.404;5.474;2022-10-26T05:38:46;6.22;;;2.00;;
45784;SDS011;31489;51.404;5.474;2022-10-26T05:41:12;5.30;;;2.33;;
45784;SDS011;31489;51.404;5.474;2022-10-26T05:43:37;9.00;;;2.20;;
45784;SDS011;31489;51.404;5.474;2022-10-26T05:46:03;7.95;;;2.40;;
45784;SDS011;31489;51.404;5.474;2022-10-26T05:48:29;4.15;;;1.98;;
45784;SDS011;31489;51.404;5.474;2022-10-26T05:50:57;5.65;;;2.05;;
45784;SDS011;31489;51.404;5.474;2022-10-26T05:53:24;8.85;;;2.58;;
45784;SDS011;31489;51.404;5.474;2022-10-26T05:55:50;5.55;;;2.15;;
45784;SDS011;31489;51.404;5.474;2022-10-26T05:58:16;8.25;;;2.60;;
45784;SDS011;31489;51.404;5.474;2022-10-26T06:00:48;5.85;;;2.47;;
45784;SDS011;31489;51.404;5.474;2022-10-26T06:06:10;5.38;;;2.30;;
45784;SDS011;31489;51.404;5.474;2022-10-26T06:08:37;3.58;;;2.20;;
45784;SDS011;31489;51.404;5.474;2022-10-26T06:11:03;6.07;;;2.58;;
45784;SDS011;31489;51.404;5.474;2022-10-26T06:13:29;4.82;;;2.47;;
45784;SDS011;31489;51.404;5.474;2022-10-26T06:18:53;5.30;;;2.15;;
45784;SDS011;31489;51.404;5.474;2022-10-26T06:32:06;4.93;;;2.28;;
45784;SDS011;31489;51.404;5.474;2022-10-26T06:34:36;8.43;;;2.42;;
45784;SDS011;31489;51.404;5.474;2022-10-26T06:37:06;9.73;;;2.60;;
45784;SDS011;31489;51.404;5.474;2022-10-26T06:39:34;4.95;;;2.53;;
45784;SDS011;31489;51.404;5.474;2022-10-26T06:42:03;4.32;;;2.10;;
45784;SDS011;31489;51.404;5.474;2022-10-26T06:44:30;6.03;;;2.20;;
45784;SDS011;31489;51.404;5.474;2022-10-26T06:49:52;3.97;;;2.35;;
45784;SDS011;31489;51.404;5.474;2022-10-26T06:52:43;6.68;;;2.40;;
45784;SDS011;31489;51.404;5.474;2022-10-26T06:55:16;11.65;;;2.25;;
45784;SDS011;31489;51.404;5.474;2022-10-26T06:57:42;6.47;;;2.58;;
45784;SDS011;31489;51.404;5.474;2022-10-26T07:02:47;6.47;;;1.98;;
45784;SDS011;31489;51.404;5.474;2022-10-26T07:05:13;5.78;;;2.17;;
45784;SDS011;31489;51.404;5.474;2022-10-26T07:07:40;11.60;;;2.50;;
45784;SDS011;31489;51.404;5.474;2022-10-26T07:10:08;4.68;;;2.45;;
45784;SDS011;31489;51.404;5.474;2022-10-26T07:12:34;4.32;;;2.28;;
45784;SDS011;31489;51.404;5.474;2022-10-26T07:15:00;4.20;;;2.33;;
45784;SDS011;31489;51.404;5.474;2022-10-26T07:17:26;5.90;;;2.40;;
45784;SDS011;31489;51.404;5.474;2022-10-26T07:19:53;6.30;;;2.38;;
45784;SDS011;31489;51.404;5.474;2022-10-26T07:22:19;4.03;;;2.25;;
45784;SDS011;31489;51.404;5.474;2022-10-26T07:24:44;3.67;;;2.00;;
45784;SDS011;31489;51.404;5.474;2022-10-26T07:27:14;6.95;;;2.70;;
45784;SDS011;31489;51.404;5.474;2022-10-26T07:29:40;5.10;;;2.03;;
45784;SDS011;31489;51.404;5.474;2022-10-26T07:32:06;6.40;;;2.50;;
45784;SDS011;31489;51.404;5.474;2022-10-26T07:34:32;4.63;;;2.60;;
45784;SDS011;31489;51.404;5.474;2022-10-26T07:36:58;6.05;;;2.55;;
45784;SDS011;31489;51.404;5.474;2022-10-26T07:39:24;6.45;;;2.65;;
45784;SDS011;31489;51.404;5.474;2022-10-26T07:41:50;7.45;;;2.33;;
45784;SDS011;31489;51.404;5.474;2022-10-26T07:44:16;4.97;;;2.40;;
45784;SDS011;31489;51.404;5.474;2022-10-26T07:46:41;5.07;;;2.30;;
45784;SDS011;31489;51.404;5.474;2022-10-26T07:49:07;8.02;;;2.45;;
45784;SDS011;31489;51.404;5.474;2022-10-26T07:51:33;4.30;;;2.78;;
45784;SDS011;31489;51.404;5.474;2022-10-26T07:53:58;6.32;;;3.08;;
45784;SDS011;31489;51.404;5.474;2022-10-26T07:56:24;8.43;;;3.42;;
45784;SDS011;31489;51.404;5.474;2022-10-26T07:58:51;7.95;;;2.60;;
45784;SDS011;31489;51.404;5.474;2022-10-26T08:01:18;9.10;;;2.70;;
45784;SDS011;31489;51.404;5.474;2022-10-26T08:03:44;6.65;;;2.53;;
45784;SDS011;31489;51.404;5.474;2022-10-26T08:06:10;4.13;;;2.60;;
45784;SDS011;31489;51.404;5.474;2022-10-26T08:08:36;8.73;;;3.17;;
45784;SDS011;31489;51.404;5.474;2022-10-26T08:11:02;4.85;;;2.90;;
45784;SDS011;31489;51.404;5.474;2022-10-26T08:13:29;8.48;;;2.70;;
45784;SDS011;31489;51.404;5.474;2022-10-26T08:15:55;3.47;;;2.25;;
45784;SDS011;31489;51.404;5.474;2022-10-26T08:18:22;5.07;;;2.08;;
45784;SDS011;31489;51.404;5.474;2022-10-26T08:20:47;4.43;;;2.25;;
45784;SDS011;31489;51.404;5.474;2022-10-26T08:23:13;4.78;;;1.80;;
45784;SDS011;31489;51.404;5.474;2022-10-26T08:25:38;4.57;;;2.33;;
45784;SDS011;31489;51.404;5.474;2022-10-26T08:28:04;2.72;;;1.70;;
45784;SDS011;31489;51.404;5.474;2022-10-26T08:30:30;5.63;;;2.50;;
45784;SDS011;31489;51.404;5.474;2022-10-26T08:32:59;4.20;;;2.08;;
45784;SDS011;31489;51.404;5.474;2022-10-26T08:35:30;5.40;;;2.15;;
45784;SDS011;31489;51.404;5.474;2022-10-26T08:37:56;5.95;;;2.13;;
45784;SDS011;31489;51.404;5.474;2022-10-26T08:40:26;4.90;;;1.80;;
45784;SDS011;31489;51.404;5.474;2022-10-26T08:42:57;5.65;;;1.83;;
45784;SDS011;31489;51.404;5.474;2022-10-26T08:45:27;6.22;;;1.90;;
45784;SDS011;31489;51.404;5.474;2022-10-26T08:48:03;4.50;;;1.98;;
45784;SDS011;31489;51.404;5.474;2022-10-26T08:50:36;4.85;;;1.85;;
45784;SDS011;31489;51.404;5.474;2022-10-26T08:58:52;5.20;;;1.58;;
45784;SDS011;31489;51.404;5.474;2022-10-26T09:01:39;4.60;;;1.95;;
45784;SDS011;31489;51.404;5.474;2022-10-26T09:04:05;3.35;;;1.63;;
45784;SDS011;31489;51.404;5.474;2022-10-26T09:12:18;4.85;;;2.13;;
45784;SDS011;31489;51.404;5.474;2022-10-26T09:17:33;4.18;;;2.00;;
45784;SDS011;31489;51.404;5.474;2022-10-26T09:23:15;5.13;;;2.10;;
45784;SDS011;31489;51.404;5.474;2022-10-26T09:25:53;9.13;;;2.30;;
45784;SDS011;31489;51.404;5.474;2022-10-26T09:28:24;5.78;;;2.00;;
45784;SDS011;31489;51.404;5.474;2022-10-26T09:30:54;5.00;;;2.00;;
45784;SDS011;31489;51.404;5.474;2022-10-26T09:33:23;6.85;;;2.10;;
45784;SDS011;31489;51.404;5.474;2022-10-26T09:35:51;9.50;;;1.98;;
45784;SDS011;31489;51.404;5.474;2022-10-26T09:38:24;7.88;;;2.97;;
45784;SDS011;31489;51.404;5.474;2022-10-26T09:40:58;5.30;;;2.03;;
45784;SDS011;31489;51.404;5.474;2022-10-26T09:46:11;5.75;;;2.10;;
45784;SDS011;31489;51.404;5.474;2022-10-26T09:48:42;14.02;;;2.25;;
45784;SDS011;31489;51.404;5.474;2022-10-26T09:51:15;5.57;;;1.80;;
45784;SDS011;31489;51.404;5.474;2022-10-26T09:53:42;3.83;;;2.10;;
45784;SDS011;31489;51.404;5.474;2022-10-26T09:56:08;4.38;;;1.92;;
45784;SDS011;31489;51.404;5.474;2022-10-26T10:04:14;5.03;;;1.85;;
45784;SDS011;31489;51.404;5.474;2022-10-26T10:06:44;5.55;;;1.80;;
45784;SDS011;31489;51.404;5.474;2022-10-26T10:09:12;5.55;;;1.80;;
45784;SDS011;31489;51.404;5.474;2022-10-26T10:11:52;5.32;;;1.60;;
45784;SDS011;31489;51.404;5.474;2022-10-26T10:17:01;4.07;;;1.65;;
45784;SDS011;31489;51.404;5.474;2022-10-26T10:19:33;4.47;;;2.00;;
45784;SDS011;31489;51.404;5.474;2022-10-26T10:24:32;5.03;;;1.67;;
45784;SDS011;31489;51.404;5.474;2022-10-26T10:29:27;3.95;;;1.60;;
45784;SDS011;31489;51.404;5.474;2022-10-26T10:31:54;3.25;;;1.52;;
45784;SDS011;31489;51.404;5.474;2022-10-26T10:34:21;7.18;;;1.83;;
45784;SDS011;31489;51.404;5.474;2022-10-26T10:36:47;5.20;;;1.70;;
45784;SDS011;31489;51.404;5.474;2022-10-26T10:39:27;6.35;;;1.95;;
45784;SDS011;31489;51.404;5.474;2022-10-26T10:42:01;4.32;;;1.70;;
45784;SDS011;31489;51.404;5.474;2022-10-26T10:44:37;3.60;;;1.73;;
45784;SDS011;31489;51.404;5.474;2022-10-26T10:47:03;2.78;;;1.30;;
45784;SDS011;31489;51.404;5.474;2022-10-26T10:49:30;6.40;;;1.90;;
45784;SDS011;31489;51.404;5.474;2022-10-26T10:51:57;4.65;;;1.85;;
45784;SDS011;31489;51.404;5.474;2022-10-26T10:54:25;6.15;;;1.50;;
45784;SDS011;31489;51.404;5.474;2022-10-26T10:57:04;2.28;;;1.52;;
45784;SDS011;31489;51.404;5.474;2022-10-26T10:59:34;8.07;;;2.05;;
45784;SDS011;31489;51.404;5.474;2022-10-26T11:02:32;4.57;;;1.80;;
45784;SDS011;31489;51.404;5.474;2022-10-26T11:08:14;4.15;;;2.03;;
45784;SDS011;31489;51.404;5.474;2022-10-26T11:11:02;4.90;;;1.65;;
45784;SDS011;31489;51.404;5.474;2022-10-26T11:16:45;3.75;;;1.67;;
45784;SDS011;31489;51.404;5.474;2022-10-26T11:19:17;4.70;;;1.45;;
45784;SDS011;31489;51.404;5.474;2022-10-26T11:21:52;5.15;;;1.40;;
45784;SDS011;31489;51.404;5.474;2022-10-26T11:24:23;4.25;;;1.30;;
45784;SDS011;31489;51.404;5.474;2022-10-26T11:42:49;2.97;;;1.30;;
45784;SDS011;31489;51.404;5.474;2022-10-26T11:45:25;8.25;;;1.52;;
45784;SDS011;31489;51.404;5.474;2022-10-26T11:47:59;5.05;;;1.70;;
45784;SDS011;31489;51.404;5.474;2022-10-26T11:50:47;4.25;;;1.42;;
45784;SDS011;31489;51.404;5.474;2022-10-26T11:53:18;3.45;;;1.60;;
45784;SDS011;31489;51.404;5.474;2022-10-26T11:55:49;3.10;;;1.35;;
45784;SDS011;31489;51.404;5.474;2022-10-26T11:58:16;3.08;;;1.40;;
45784;SDS011;31489;51.404;5.474;2022-10-26T12:00:50;3.03;;;1.38;;
45784;SDS011;31489;51.404;5.474;2022-10-26T12:03:32;4.78;;;1.50;;
45784;SDS011;31489;51.404;5.474;2022-10-26T12:06:01;3.65;;;1.75;;
45784;SDS011;31489;51.404;5.474;2022-10-26T12:08:32;3.35;;;1.13;;
45784;SDS011;31489;51.404;5.474;2022-10-26T12:13:43;2.35;;;1.13;;
45784;SDS011;31489;51.404;5.474;2022-10-26T12:16:34;4.05;;;1.50;;
45784;SDS011;31489;51.404;5.474;2022-10-26T12:19:17;7.85;;;1.58;;
45784;SDS011;31489;51.404;5.474;2022-10-26T12:21:55;3.88;;;1.45;;
45784;SDS011;31489;51.404;5.474;2022-10-26T12:31:54;2.20;;;1.02;;
45784;SDS011;31489;51.404;5.474;2022-10-26T12:34:24;6.78;;;1.25;;
45784;SDS011;31489;51.404;5.474;2022-10-26T12:37:54;1.60;;;1.25;;
45784;SDS011;31489;51.404;5.474;2022-10-26T12:42:57;2.75;;;1.10;;
45784;SDS011;31489;51.404;5.474;2022-10-26T12:45:43;2.00;;;1.20;;
45784;SDS011;31489;51.404;5.474;2022-10-26T12:48:21;4.22;;;1.10;;
45784;SDS011;31489;51.404;5.474;2022-10-26T12:50:51;4.07;;;1.40;;
45784;SDS011;31489;51.404;5.474;2022-10-26T12:53:17;2.35;;;1.17;;
45784;SDS011;31489;51.404;5.474;2022-10-26T13:03:34;3.08;;;1.08;;
45784;SDS011;31489;51.404;5.474;2022-10-26T13:08:37;3.03;;;1.35;;
45784;SDS011;31489;51.404;5.474;2022-10-26T13:11:29;8.85;;;1.55;;
45784;SDS011;31489;51.404;5.474;2022-10-26T13:13:57;2.42;;;1.02;;
45784;SDS011;31489;51.404;5.474;2022-10-26T13:16:26;5.53;;;1.25;;
45784;SDS011;31489;51.404;5.474;2022-10-26T13:18:53;2.90;;;1.40;;
45784;SDS011;31489;51.404;5.474;2022-10-26T13:21:20;3.60;;;1.23;;
45784;SDS011;31489;51.404;5.474;2022-10-26T13:26:26;7.55;;;1.38;;
45784;SDS011;31489;51.404;5.474;2022-10-26T13:28:54;2.75;;;1.17;;
45784;SDS011;31489;51.404;5.474;2022-10-26T13:33:55;6.13;;;1.30;;
45784;SDS011;31489;51.404;5.474;2022-10-26T13:39:30;4.05;;;1.10;;
45784;SDS011;31489;51.404;5.474;2022-10-26T13:42:00;3.08;;;1.20;;
45784;SDS011;31489;51.404;5.474;2022-10-26T13:44:28;2.53;;;1.23;;
45784;SDS011;31489;51.404;5.474;2022-10-26T13:47:07;4.03;;;1.52;;
45784;SDS011;31489;51.404;5.474;2022-10-26T13:49:37;3.63;;;1.25;;
45784;SDS011;31489;51.404;5.474;2022-10-26T13:52:05;3.38;;;1.10;;
45784;SDS011;31489;51.404;5.474;2022-10-26T13:54:46;2.67;;;1.13;;
45784;SDS011;31489;51.404;5.474;2022-10-26T13:57:21;1.75;;;0.93;;
45784;SDS011;31489;51.404;5.474;2022-10-26T14:00:14;6.35;;;1.42;;
45784;SDS011;31489;51.404;5.474;2022-10-26T14:02:44;3.25;;;1.33;;
45784;SDS011;31489;51.404;5.474;2022-10-26T14:05:13;4.47;;;1.55;;
45784;SDS011;31489;51.404;5.474;2022-10-26T14:12:53;3.85;;;1.30;;
45784;SDS011;31489;51.404;5.474;2022-10-26T14:15:22;3.83;;;1.50;;
45784;SDS011;31489;51.404;5.474;2022-10-26T14:17:50;2.58;;;1.20;;
45784;SDS011;31489;51.404;5.474;2022-10-26T14:20:18;1.60;;;1.00;;
45784;SDS011;31489;51.404;5.474;2022-10-26T14:22:46;4.57;;;1.40;;
45784;SDS011;31489;51.404;5.474;2022-10-26T14:25:22;2.35;;;1.17;;
45784;SDS011;31489;51.404;5.474;2022-10-26T14:27:50;3.25;;;1.15;;
45784;SDS011;31489;51.404;5.474;2022-10-26T14:30:30;4.35;;;1.65;;
45784;SDS011;31489;51.404;5.474;2022-10-26T14:32:56;3.00;;;1.23;;
45784;SDS011;31489;51.404;5.474;2022-10-26T14:35:32;4.72;;;1.15;;
45784;SDS011;31489;51.404;5.474;2022-10-26T14:38:02;6.18;;;1.25;;
45784;SDS011;31489;51.404;5.474;2022-10-26T14:40:41;4.80;;;1.40;;
45784;SDS011;31489;51.404;5.474;2022-10-26T14:43:10;2.50;;;1.27;;
45784;SDS011;31489;51.404;5.474;2022-10-26T14:45:45;2.25;;;1.13;;
45784;SDS011;31489;51.404;5.474;2022-10-26T14:48:18;4.03;;;1.42;;
45784;SDS011;31489;51.404;5.474;2022-10-26T14:50:56;5.35;;;1.08;;
45784;SDS011;31489;51.404;5.474;2022-10-26T14:53:31;4.63;;;1.30;;
45784;SDS011;31489;51.404;5.474;2022-10-26T14:56:03;2.85;;;1.30;;
45784;SDS011;31489;51.404;5.474;2022-10-26T14:58:30;4.70;;;1.40;;
45784;SDS011;31489;51.404;5.474;2022-10-26T15:03:51;3.97;;;1.23;;
45784;SDS011;31489;51.404;5.474;2022-10-26T15:06:28;4.65;;;1.50;;
45784;SDS011;31489;51.404;5.474;2022-10-26T15:08:55;2.35;;;0.93;;
45784;SDS011;31489;51.404;5.474;2022-10-26T15:11:22;2.28;;;1.40;;
45784;SDS011;31489;51.404;5.474;2022-10-26T15:13:48;2.33;;;1.10;;
45784;SDS011;31489;51.404;5.474;2022-10-26T15:16:19;4.45;;;1.27;;
45784;SDS011;31489;51.404;5.474;2022-10-26T15:18:51;3.10;;;1.17;;
45784;SDS011;31489;51.404;5.474;2022-10-26T15:21:34;3.22;;;1.25;;
45784;SDS011;31489;51.404;5.474;2022-10-26T15:24:11;4.57;;;1.20;;
45784;SDS011;31489;51.404;5.474;2022-10-26T15:26:47;7.80;;;1.45;;
45784;SDS011;31489;51.404;5.474;2022-10-26T15:32:01;3.83;;;1.67;;
45784;SDS011;31489;51.404;5.474;2022-10-26T15:34:28;6.57;;;1.20;;
45784;SDS011;31489;51.404;5.474;2022-10-26T15:36:53;6.18;;;1.23;;
45784;SDS011;31489;51.404;5.474;2022-10-26T15:39:20;5.43;;;1.20;;
45784;SDS011;31489;51.404;5.474;2022-10-26T15:41:46;2.40;;;1.20;;
45784;SDS011;31489;51.404;5.474;2022-10-26T15:44:20;5.65;;;1.42;;
45784;SDS011;31489;51.404;5.474;2022-10-26T15:46:46;3.08;;;1.13;;
45784;SDS011;31489;51.404;5.474;2022-10-26T15:49:14;3.38;;;1.30;;
45784;SDS011;31489;51.404;5.474;2022-10-26T15:51:43;4.55;;;1.20;;
45784;SDS011;31489;51.404;5.474;2022-10-26T15:54:09;7.32;;;1.42;;
45784;SDS011;31489;51.404;5.474;2022-10-26T15:56:35;7.93;;;1.58;;
45784;SDS011;31489;51.404;5.474;2022-10-26T15:59:04;4.75;;;1.50;;
45784;SDS011;31489;51.404;5.474;2022-10-26T16:01:36;5.78;;;1.80;;
45784;SDS011;31489;51.404;5.474;2022-10-26T16:04:01;6.32;;;1.70;;
45784;SDS011;31489;51.404;5.474;2022-10-26T16:06:31;4.95;;;1.90;;
45784;SDS011;31489;51.404;5.474;2022-10-26T16:08:59;3.33;;;1.48;;
45784;SDS011;31489;51.404;5.474;2022-10-26T16:11:26;3.47;;;1.33;;
45784;SDS011;31489;51.404;5.474;2022-10-26T16:13:52;4.97;;;1.70;;
45784;SDS011;31489;51.404;5.474;2022-10-26T16:16:19;3.88;;;1.63;;
45784;SDS011;31489;51.404;5.474;2022-10-26T16:18:44;5.07;;;1.50;;
45784;SDS011;31489;51.404;5.474;2022-10-26T16:21:13;3.90;;;1.63;;
45784;SDS011;31489;51.404;5.474;2022-10-26T16:23:41;4.38;;;1.65;;
45784;SDS011;31489;51.404;5.474;2022-10-26T16:26:09;7.55;;;1.55;;
45784;SDS011;31489;51.404;5.474;2022-10-26T16:28:35;5.28;;;1.42;;
45784;SDS011;31489;51.404;5.474;2022-10-26T16:31:01;4.88;;;1.60;;
45784;SDS011;31489;51.404;5.474;2022-10-26T16:33:29;5.60;;;1.58;;
45784;SDS011;31489;51.404;5.474;2022-10-26T16:35:57;5.70;;;1.35;;
45784;SDS011;31489;51.404;5.474;2022-10-26T16:38:23;3.20;;;1.27;;
45784;SDS011;31489;51.404;5.474;2022-10-26T16:40:50;4.95;;;1.95;;
45784;SDS011;31489;51.404;5.474;2022-10-26T16:43:31;4.63;;;1.60;;
45784;SDS011;31489;51.404;5.474;2022-10-26T16:45:58;4.75;;;2.22;;
45784;SDS011;31489;51.404;5.474;2022-10-26T16:48:26;3.78;;;1.90;;
45784;SDS011;31489;51.404;5.474;2022-10-26T16:50:52;5.63;;;1.90;;
45784;SDS011;31489;51.404;5.474;2022-10-26T16:53:17;5.68;;;2.40;;
45784;SDS011;31489;51.404;5.474;2022-10-26T16:55:43;4.82;;;2.30;;
45784;SDS011;31489;51.404;5.474;2022-10-26T16:58:09;4.90;;;2.25;;
45784;SDS011;31489;51.404;5.474;2022-10-26T17:00:35;5.15;;;2.58;;
45784;SDS011;31489;51.404;5.474;2022-10-26T17:03:01;6.90;;;2.50;;
45784;SDS011;31489;51.404;5.474;2022-10-26T17:05:28;4.60;;;2.30;;
45784;SDS011;31489;51.404;5.474;2022-10-26T17:07:54;11.98;;;2.72;;
45784;SDS011;31489;51.404;5.474;2022-10-26T17:10:20;6.13;;;2.85;;
45784;SDS011;31489;51.404;5.474;2022-10-26T17:12:46;5.72;;;2.90;;
45784;SDS011;31489;51.404;5.474;2022-10-26T17:15:11;4.55;;;2.53;;
45784;SDS011;31489;51.404;5.474;2022-10-26T17:17:37;4.43;;;2.67;;
45784;SDS011;31489;51.404;5.474;2022-10-26T17:20:03;8.63;;;2.97;;
45784;SDS011;31489;51.404;5.474;2022-10-26T17:22:29;7.10;;;2.95;;
45784;SDS011;31489;51.404;5.474;2022-10-26T17:24:54;7.15;;;2.97;;